Time;durP1;ratioP1;P1;durP2;ratioP2;P2;SDS_P1;SDS_P2;PMS_P1;PMS_P2;Temp;Humidity;BMP_temperature;BMP_pressure;BME280_temperature;BME280_humidity;BME280_pressure;Samples;Min_cycle;Max_cycle;Signal;HPM_P1;HPM_P2
2021/11/30 00:00:48;;;;;;;12.40;7.33;;;2.70;99.90;;;;;;5009625;28;20261;-78
2021/11/30 00:03:15;;;;;;;11.33;7.50;;;2.70;99.90;;;;;;5007352;28;20505;-78
2021/11/30 00:05:42;;;;;;;11.83;7.60;;;2.70;99.90;;;;;;5027506;28;20692;-77
2021/11/30 00:08:10;;;;;;;13.37;8.63;;;2.70;99.90;;;;;;5021106;28;20204;-78
2021/11/30 00:10:46;;;;;;;15.17;8.90;;;2.70;99.90;;;;;;5021572;28;20790;-78
2021/11/30 00:13:16;;;;;;;12.90;8.93;;;2.70;99.90;;;;;;5031889;28;20603;-77
2021/11/30 00:15:43;;;;;;;15.93;8.47;;;2.70;99.90;;;;;;5005771;28;20411;-78
2021/11/30 00:18:10;;;;;;;11.93;8.50;;;2.70;99.90;;;;;;5028677;28;20218;-77
2021/11/30 00:20:37;;;;;;;13.13;8.73;;;2.80;99.90;;;;;;5005625;28;20287;-77
2021/11/30 00:23:05;;;;;;;14.17;9.43;;;2.80;99.90;;;;;;5027904;28;20275;-78
2021/11/30 00:25:31;;;;;;;12.53;8.63;;;2.80;99.90;;;;;;5020219;28;20310;-77
2021/11/30 00:27:59;;;;;;;14.67;9.47;;;2.80;99.90;;;;;;5024217;28;20720;-78
2021/11/30 00:30:27;;;;;;;14.53;8.53;;;2.80;99.90;;;;;;5023778;28;20211;-78
2021/11/30 00:32:54;;;;;;;16.60;10.37;;;2.80;99.90;;;;;;5027519;28;20196;-78
2021/11/30 00:35:22;;;;;;;16.80;9.00;;;2.90;99.90;;;;;;5007263;28;20228;-78
2021/11/30 00:37:49;;;;;;;18.10;9.17;;;2.80;99.90;;;;;;5024259;28;20207;-78
2021/11/30 00:40:15;;;;;;;14.90;9.27;;;2.80;99.90;;;;;;5027231;28;20299;-78
2021/11/30 00:42:42;;;;;;;15.00;8.43;;;2.80;99.90;;;;;;5011558;28;20215;-78
2021/11/30 00:45:13;;;;;;;14.83;9.13;;;2.80;99.90;;;;;;5028173;28;20262;-78
2021/11/30 00:47:46;;;;;;;12.37;8.97;;;2.80;99.90;;;;;;5023062;28;20425;-78
2021/11/30 00:50:13;;;;;;;13.23;8.80;;;2.90;99.90;;;;;;5009260;28;20212;-78
2021/11/30 00:52:40;;;;;;;13.73;9.47;;;2.90;99.90;;;;;;5024905;28;20194;-78
2021/11/30 00:55:07;;;;;;;12.90;9.30;;;2.90;99.90;;;;;;5041658;28;20234;-78
2021/11/30 00:57:39;;;;;;;13.40;9.40;;;2.80;99.90;;;;;;5000916;28;20200;-78
2021/11/30 01:00:08;;;;;;;12.00;8.90;;;2.90;99.90;;;;;;5012854;28;20715;-78
2021/11/30 01:02:34;;;;;;;14.10;9.13;;;2.80;99.90;;;;;;5022137;28;20290;-77
2021/11/30 01:05:04;;;;;;;12.70;8.87;;;2.80;99.90;;;;;;5036345;28;20214;-77
2021/11/30 01:07:34;;;;;;;13.87;9.63;;;2.90;99.90;;;;;;5018543;28;20214;-78
2021/11/30 01:10:01;;;;;;;12.60;9.20;;;2.90;99.90;;;;;;5027702;28;20206;-78
2021/11/30 01:12:28;;;;;;;15.37;9.47;;;2.90;99.90;;;;;;5025653;28;20234;-78
2021/11/30 01:14:55;;;;;;;13.93;9.13;;;2.90;99.90;;;;;;5041514;28;20222;-77
2021/11/30 01:17:22;;;;;;;14.20;9.07;;;2.90;99.90;;;;;;5006423;28;20230;-78
2021/11/30 01:19:48;;;;;;;15.67;10.40;;;3.00;99.90;;;;;;5028629;28;20234;-78
2021/11/30 01:22:16;;;;;;;17.53;10.27;;;3.00;99.90;;;;;;5028808;28;20203;-77
2021/11/30 01:24:43;;;;;;;14.77;9.97;;;3.00;99.90;;;;;;5022501;28;20207;-77
2021/11/30 01:27:10;;;;;;;14.23;10.23;;;3.00;99.90;;;;;;5011240;28;20215;-77
2021/11/30 01:29:37;;;;;;;17.60;11.00;;;3.00;99.90;;;;;;5024627;28;20401;-78
2021/11/30 01:32:05;;;;;;;18.03;11.47;;;3.10;99.90;;;;;;5026581;28;20199;-77
2021/11/30 01:34:33;;;;;;;14.37;9.77;;;3.10;99.90;;;;;;5020483;28;20216;-77
2021/11/30 01:36:59;;;;;;;17.10;10.43;;;3.10;99.90;;;;;;5026829;28;20239;-78
2021/11/30 01:39:28;;;;;;;15.70;10.63;;;3.20;99.90;;;;;;5023113;28;20208;-77
2021/11/30 01:41:55;;;;;;;13.83;9.27;;;3.20;99.90;;;;;;4999832;28;20558;-77
2021/11/30 01:44:33;;;;;;;15.70;10.37;;;3.20;99.90;;;;;;5010792;28;20620;-77
2021/11/30 01:47:09;;;;;;;14.90;11.00;;;3.20;99.90;;;;;;5026116;28;20223;-78
2021/11/30 01:49:36;;;;;;;14.57;10.50;;;3.30;99.90;;;;;;5021920;28;20413;-77
2021/11/30 01:52:05;;;;;;;16.37;10.20;;;3.40;99.90;;;;;;5019552;28;20200;-78
2021/11/30 01:54:33;;;;;;;16.93;10.33;;;3.40;99.90;;;;;;5015290;28;20200;-77
2021/11/30 01:57:00;;;;;;;16.13;10.17;;;3.40;99.90;;;;;;4986267;28;20589;-78
2021/11/30 01:59:27;;;;;;;13.43;9.80;;;3.50;99.90;;;;;;5030315;28;20290;-78
2021/11/30 02:01:53;;;;;;;14.23;9.27;;;3.50;99.90;;;;;;5029146;28;20211;-78
2021/11/30 02:04:20;;;;;;;9.20;7.07;;;3.60;99.90;;;;;;5006246;28;20393;-77
2021/11/30 02:06:47;;;;;;;10.63;7.33;;;3.60;99.90;;;;;;5021451;28;20235;-76
2021/11/30 02:09:13;;;;;;;11.90;7.83;;;3.60;99.90;;;;;;5021443;28;20217;-77
2021/11/30 02:11:42;;;;;;;10.90;7.30;;;3.50;99.90;;;;;;5022658;28;20219;-76
2021/11/30 02:14:08;;;;;;;12.17;7.47;;;3.50;99.90;;;;;;5001009;28;20295;-77
2021/11/30 02:16:35;;;;;;;11.83;7.73;;;3.50;99.90;;;;;;5020051;28;20222;-77
2021/11/30 02:19:03;;;;;;;9.80;7.97;;;3.50;99.90;;;;;;5022530;28;20787;-77
2021/11/30 02:21:35;;;;;;;10.70;7.67;;;3.50;99.90;;;;;;5025573;28;20223;-77
2021/11/30 02:24:02;;;;;;;10.50;7.73;;;3.50;99.90;;;;;;5020042;28;20192;-77
2021/11/30 02:26:31;;;;;;;10.27;7.63;;;3.50;99.90;;;;;;5028188;28;20719;-77
2021/11/30 02:28:58;;;;;;;9.63;7.50;;;3.50;99.90;;;;;;5017082;28;20200;-76
2021/11/30 02:31:27;;;;;;;10.77;7.27;;;3.50;99.90;;;;;;5042737;28;20211;-77
2021/11/30 02:33:55;;;;;;;10.23;7.97;;;3.50;99.90;;;;;;5003589;28;20246;-77
2021/11/30 02:36:25;;;;;;;9.63;7.17;;;3.50;99.90;;;;;;5004878;28;20418;-77
2021/11/30 02:38:55;;;;;;;8.90;6.97;;;3.50;99.90;;;;;;5006289;28;20274;-77
2021/11/30 02:41:22;;;;;;;10.20;8.07;;;3.50;99.90;;;;;;5023775;28;20216;-77
2021/11/30 02:43:50;;;;;;;5.97;4.90;;;3.50;99.90;;;;;;5025467;28;20215;-77
2021/11/30 02:46:34;;;;;;;8.93;6.73;;;3.50;99.90;;;;;;5027897;28;20440;-77
2021/11/30 02:49:02;;;;;;;7.93;7.10;;;3.50;99.90;;;;;;5025730;28;20207;-77
2021/11/30 02:51:29;;;;;;;9.07;7.20;;;3.50;99.90;;;;;;5024805;28;20210;-77
2021/11/30 02:53:59;;;;;;;10.97;7.20;;;3.50;99.90;;;;;;5019707;28;20262;-78
2021/11/30 02:56:27;;;;;;;8.23;7.27;;;3.50;99.90;;;;;;5035985;28;20608;-77
2021/11/30 02:58:54;;;;;;;10.90;7.43;;;3.50;99.90;;;;;;5018011;28;20677;-76
2021/11/30 03:01:22;;;;;;;10.00;7.27;;;3.60;99.90;;;;;;5023826;28;20216;-77
2021/11/30 03:03:49;;;;;;;6.93;5.50;;;3.60;99.90;;;;;;5017484;28;20196;-76
2021/11/30 03:06:16;;;;;;;6.40;5.60;;;3.60;99.90;;;;;;5017969;28;20349;-77
2021/11/30 03:08:43;;;;;;;8.40;7.20;;;3.60;99.90;;;;;;5023522;28;20215;-77
2021/11/30 03:11:11;;;;;;;7.17;5.73;;;3.60;99.90;;;;;;5001105;28;20842;-77
2021/11/30 03:13:38;;;;;;;6.13;5.37;;;3.60;99.90;;;;;;5024275;28;20236;-77
2021/11/30 03:16:05;;;;;;;8.50;6.43;;;3.60;99.90;;;;;;5002102;28;20227;-77
2021/11/30 03:18:34;;;;;;;6.07;4.67;;;3.70;99.90;;;;;;5020105;28;20235;-77
2021/11/30 03:21:03;;;;;;;6.27;4.83;;;3.60;99.90;;;;;;5017116;28;20219;-77
2021/11/30 03:23:29;;;;;;;4.30;3.90;;;3.70;99.90;;;;;;5004764;28;20208;-77
2021/11/30 03:25:56;;;;;;;6.23;4.53;;;3.60;99.90;;;;;;5020843;28;20223;-77
2021/11/30 03:28:24;;;;;;;8.17;5.10;;;3.60;99.90;;;;;;5023014;28;20204;-77
2021/11/30 03:30:57;;;;;;;5.00;4.50;;;3.60;99.90;;;;;;5019250;28;20208;-77
2021/11/30 03:36:08;;;;;;;3.57;3.27;;;3.60;99.90;;;;;;5011608;28;20754;-77
2021/11/30 03:38:35;;;;;;;5.17;4.03;;;3.60;99.90;;;;;;5010600;28;20698;-77
2021/11/30 03:41:01;;;;;;;5.80;4.23;;;3.60;99.90;;;;;;5019328;28;20224;-76
2021/11/30 03:43:29;;;;;;;5.60;5.10;;;3.60;99.90;;;;;;5018670;28;20210;-77
2021/11/30 03:45:56;;;;;;;7.33;5.63;;;3.60;99.90;;;;;;4996218;28;21292;-77
2021/11/30 03:48:23;;;;;;;5.77;5.27;;;3.60;99.90;;;;;;5030406;28;20775;-77
2021/11/30 03:50:50;;;;;;;5.17;4.67;;;3.60;99.90;;;;;;5017475;28;20218;-77
2021/11/30 03:53:16;;;;;;;5.93;5.33;;;3.50;99.90;;;;;;5005000;28;20204;-77
2021/11/30 03:55:43;;;;;;;5.60;5.10;;;3.50;99.90;;;;;;5018906;28;20220;-77
2021/11/30 03:58:10;;;;;;;5.60;4.97;;;3.50;99.90;;;;;;5023044;28;20673;-77
2021/11/30 04:00:38;;;;;;;5.67;5.17;;;3.50;99.90;;;;;;5019235;28;20582;-77
2021/11/30 04:03:05;;;;;;;5.03;4.63;;;3.50;99.90;;;;;;5003172;28;20354;-77
2021/11/30 04:05:32;;;;;;;5.93;5.23;;;3.50;99.90;;;;;;5022489;28;20251;-77
2021/11/30 04:07:59;;;;;;;3.43;3.17;;;3.50;99.90;;;;;;5004167;28;20212;-76
2021/11/30 04:10:26;;;;;;;5.80;4.83;;;3.50;99.90;;;;;;5023355;28;20685;-77
2021/11/30 04:12:55;;;;;;;7.07;4.23;;;3.50;99.90;;;;;;5008322;28;20235;-77
2021/11/30 04:15:22;;;;;;;6.60;4.33;;;3.50;99.90;;;;;;5022926;28;20506;-77
2021/11/30 04:17:50;;;;;;;8.70;5.50;;;3.50;99.90;;;;;;5021610;28;20215;-77
2021/11/30 04:20:17;;;;;;;7.63;4.47;;;3.50;99.90;;;;;;5024262;28;20204;-77
2021/11/30 04:22:43;;;;;;;12.00;5.70;;;3.50;99.90;;;;;;5027009;28;20253;-77
2021/11/30 04:25:12;;;;;;;8.73;5.13;;;3.50;99.90;;;;;;5010659;28;20224;-76
2021/11/30 04:27:39;;;;;;;22.43;7.23;;;3.50;99.90;;;;;;5008395;28;20200;-77
2021/11/30 04:30:07;;;;;;;17.40;6.47;;;3.50;99.90;;;;;;5024991;28;20202;-77
2021/11/30 04:32:34;;;;;;;8.47;4.60;;;3.50;99.90;;;;;;5019215;28;20219;-77
2021/11/30 04:35:03;;;;;;;14.03;6.40;;;3.50;99.90;;;;;;5012350;28;20230;-77
2021/11/30 04:37:30;;;;;;;10.93;5.43;;;3.50;99.90;;;;;;5025033;28;20473;-77
2021/11/30 04:39:57;;;;;;;10.43;5.87;;;3.50;99.90;;;;;;5025967;28;20196;-77
2021/11/30 04:42:26;;;;;;;8.93;4.10;;;3.60;99.90;;;;;;5023748;28;20810;-76
2021/11/30 04:44:58;;;;;;;18.53;6.03;;;3.60;99.90;;;;;;5024835;28;20214;-77
2021/11/30 04:47:28;;;;;;;5.73;4.57;;;3.60;99.90;;;;;;5024442;28;20724;-77
2021/11/30 04:49:58;;;;;;;17.13;6.13;;;3.60;99.90;;;;;;5017432;28;20200;-77
2021/11/30 04:52:27;;;;;;;12.70;5.90;;;3.60;99.90;;;;;;5035972;28;20209;-77
2021/11/30 04:54:53;;;;;;;12.27;5.07;;;3.60;99.90;;;;;;5028620;28;20215;-77
2021/11/30 04:57:20;;;;;;;5.83;5.30;;;3.60;99.90;;;;;;5014043;28;20567;-77
2021/11/30 04:59:47;;;;;;;8.93;6.33;;;3.70;99.90;;;;;;5027435;28;20211;-77
2021/11/30 05:02:14;;;;;;;21.23;8.07;;;3.70;99.90;;;;;;4994505;28;20243;-77
2021/11/30 05:04:42;;;;;;;8.33;4.73;;;3.70;99.90;;;;;;5005320;28;20214;-77
2021/11/30 05:07:09;;;;;;;10.90;6.17;;;3.80;99.90;;;;;;5021670;28;20242;-77
2021/11/30 05:09:37;;;;;;;4.67;4.30;;;3.80;99.90;;;;;;5036039;28;20200;-77
2021/11/30 05:12:04;;;;;;;7.67;6.60;;;3.80;99.90;;;;;;5030150;28;20735;-77
2021/11/30 05:14:31;;;;;;;7.80;5.80;;;3.80;99.90;;;;;;5021950;28;20207;-77
2021/11/30 05:16:58;;;;;;;23.70;7.70;;;3.90;99.90;;;;;;5020080;28;20930;-77
2021/11/30 05:19:24;;;;;;;6.87;5.73;;;3.90;99.90;;;;;;5031728;28;20215;-77
2021/11/30 05:21:51;;;;;;;7.03;6.33;;;4.00;99.90;;;;;;5016367;28;20226;-77
2021/11/30 05:24:20;;;;;;;12.80;6.53;;;4.00;99.90;;;;;;5024223;28;20203;-77
2021/11/30 05:26:49;;;;;;;10.80;6.07;;;4.00;99.90;;;;;;4998852;28;20247;-77
2021/11/30 05:29:16;;;;;;;7.47;6.37;;;4.00;99.90;;;;;;5019317;28;20261;-77
2021/11/30 05:31:43;;;;;;;7.57;5.17;;;4.10;99.90;;;;;;5024697;28;20200;-77
2021/11/30 05:34:10;;;;;;;5.03;3.43;;;4.10;99.90;;;;;;5024424;28;20415;-77
2021/11/30 05:36:36;;;;;;;5.97;4.70;;;4.20;99.90;;;;;;5003993;28;20233;-77
2021/11/30 05:39:04;;;;;;;7.37;5.03;;;4.20;99.90;;;;;;5025564;28;20196;-77
2021/11/30 05:41:31;;;;;;;5.47;5.07;;;4.30;99.90;;;;;;5029785;28;20215;-77
2021/11/30 05:43:59;;;;;;;7.07;5.43;;;4.30;99.90;;;;;;5004586;28;20196;-77
2021/11/30 05:46:27;;;;;;;5.07;3.50;;;4.30;99.90;;;;;;5016230;28;20234;-77
2021/11/30 05:48:54;;;;;;;6.17;5.47;;;4.30;99.90;;;;;;5019718;28;20776;-77
2021/11/30 05:51:20;;;;;;;6.33;5.30;;;4.40;99.90;;;;;;5028237;28;20548;-77
2021/11/30 05:53:47;;;;;;;5.23;4.73;;;4.40;99.90;;;;;;5015540;28;20204;-77
2021/11/30 05:56:14;;;;;;;18.27;8.00;;;4.40;99.90;;;;;;5022320;28;20307;-77
2021/11/30 05:58:41;;;;;;;8.33;6.20;;;4.50;99.90;;;;;;5020798;28;20412;-77
2021/11/30 06:01:21;;;;;;;8.07;5.97;;;4.50;99.90;;;;;;5023906;28;20299;-77
2021/11/30 06:03:58;;;;;;;5.97;5.57;;;4.60;99.90;;;;;;5017727;28;20196;-77
2021/11/30 06:06:26;;;;;;;5.33;4.83;;;4.60;99.90;;;;;;5022723;28;20712;-78
2021/11/30 06:08:53;;;;;;;4.23;3.87;;;4.60;99.90;;;;;;5010904;28;20204;-77
2021/11/30 06:11:20;;;;;;;7.80;5.70;;;4.60;99.90;;;;;;5026798;28;20194;-78
2021/11/30 06:13:47;;;;;;;4.87;4.47;;;4.70;99.90;;;;;;5023923;28;20200;-82
2021/11/30 06:16:15;;;;;;;4.70;4.27;;;4.70;99.90;;;;;;4999551;28;20788;-80
2021/11/30 06:18:42;;;;;;;7.97;4.23;;;4.80;99.90;;;;;;5012999;28;20222;-80
2021/11/30 06:21:12;;;;;;;5.10;4.20;;;4.80;99.90;;;;;;5000174;28;20646;-81
2021/11/30 06:23:39;;;;;;;4.43;4.03;;;4.80;99.90;;;;;;4998670;28;20216;-78
2021/11/30 06:26:06;;;;;;;3.70;3.37;;;4.90;99.90;;;;;;5014797;28;20449;-77
2021/11/30 06:28:33;;;;;;;2.93;2.73;;;4.90;99.90;;;;;;5024122;28;20204;-79
2021/11/30 06:31:00;;;;;;;10.47;3.77;;;5.00;99.90;;;;;;5004656;28;20198;-78
2021/11/30 06:33:28;;;;;;;3.90;3.53;;;5.00;99.90;;;;;;5004351;28;20196;-78
2021/11/30 06:35:55;;;;;;;4.00;3.40;;;5.00;99.90;;;;;;5006236;28;20226;-77
2021/11/30 06:38:21;;;;;;;5.00;3.37;;;5.10;99.90;;;;;;5017664;28;20589;-78
2021/11/30 06:40:48;;;;;;;3.40;3.20;;;5.10;99.90;;;;;;5014898;28;20223;-78
2021/11/30 06:43:15;;;;;;;3.80;3.53;;;5.10;99.90;;;;;;5025170;28;20207;-78
2021/11/30 06:45:43;;;;;;;3.20;2.93;;;5.10;99.90;;;;;;5000978;28;20418;-78
2021/11/30 06:48:10;;;;;;;4.50;3.07;;;5.20;99.90;;;;;;5020197;28;20208;-77
2021/11/30 06:50:38;;;;;;;4.30;3.90;;;5.20;99.90;;;;;;5022716;28;20202;-78
2021/11/30 06:53:05;;;;;;;4.60;3.90;;;5.30;99.90;;;;;;5003999;28;20668;-78
2021/11/30 06:55:32;;;;;;;3.80;3.50;;;5.30;99.90;;;;;;5016755;28;20877;-79
2021/11/30 06:58:00;;;;;;;3.90;3.50;;;5.40;99.90;;;;;;5023896;28;20203;-76
2021/11/30 07:00:27;;;;;;;4.93;4.50;;;5.40;99.90;;;;;;5014381;28;20228;-75
2021/11/30 07:02:55;;;;;;;6.13;3.67;;;5.50;99.90;;;;;;5019986;28;20227;-76
2021/11/30 07:05:25;;;;;;;4.90;4.20;;;5.50;99.90;;;;;;5011586;28;20227;-75
2021/11/30 07:08:00;;;;;;;6.37;3.60;;;5.60;99.90;;;;;;5016210;28;20218;-77
2021/11/30 07:10:38;;;;;;;7.87;3.57;;;5.60;99.90;;;;;;5007887;28;20204;-76
2021/11/30 07:13:16;;;;;;;8.27;3.90;;;5.60;99.90;;;;;;5021176;28;20203;-77
2021/11/30 07:15:43;;;;;;;4.70;3.63;;;5.70;99.90;;;;;;5016847;28;20737;-76
2021/11/30 07:18:11;;;;;;;4.37;3.37;;;5.70;99.90;;;;;;5018758;28;20287;-76
2021/11/30 07:20:38;;;;;;;9.00;3.60;;;5.80;99.90;;;;;;5015798;28;20269;-76
2021/11/30 07:23:07;;;;;;;9.70;3.43;;;5.80;99.90;;;;;;5002699;28;20283;-76
2021/11/30 07:25:34;;;;;;;11.93;3.03;;;5.90;99.90;;;;;;5001854;28;20223;-76
2021/11/30 07:28:01;;;;;;;5.73;3.03;;;5.90;99.90;;;;;;5014650;28;20202;-76
2021/11/30 07:30:28;;;;;;;9.30;3.43;;;6.00;99.90;;;;;;5018993;28;20207;-78
2021/11/30 07:32:55;;;;;;;4.10;2.63;;;6.00;99.90;;;;;;4990746;28;20200;-77
2021/11/30 07:35:23;;;;;;;10.63;2.90;;;6.10;99.90;;;;;;5013124;28;20224;-76
2021/11/30 07:37:50;;;;;;;11.67;3.43;;;6.10;99.90;;;;;;5012538;28;20709;-77
2021/11/30 07:40:19;;;;;;;9.30;2.60;;;6.10;99.90;;;;;;5013282;28;20218;-76
2021/11/30 07:42:46;;;;;;;9.90;2.97;;;6.10;99.90;;;;;;5022751;28;20941;-77
2021/11/30 07:45:13;;;;;;;10.80;3.07;;;6.10;99.90;;;;;;5018060;28;20232;-76
2021/11/30 07:47:40;;;;;;;10.60;2.97;;;6.10;99.90;;;;;;5023111;28;20860;-77
2021/11/30 07:50:09;;;;;;;10.20;2.00;;;6.10;99.90;;;;;;5027708;28;20222;-77
2021/11/30 07:52:39;;;;;;;9.37;1.93;;;6.20;99.90;;;;;;5003086;28;20260;-77
2021/11/30 07:55:07;;;;;;;16.07;2.27;;;6.20;99.90;;;;;;5019632;28;20224;-78
2021/11/30 07:57:35;;;;;;;16.70;2.03;;;6.30;99.90;;;;;;5021213;28;20204;-77
2021/11/30 08:00:04;;;;;;;11.70;1.90;;;6.30;99.90;;;;;;5023227;28;20200;-77
2021/11/30 08:02:38;;;;;;;17.13;2.57;;;6.30;99.90;;;;;;5026963;28;20409;-78
2021/11/30 08:05:05;;;;;;;16.27;2.50;;;6.40;99.90;;;;;;5036359;28;20611;-77
2021/11/30 08:07:32;;;;;;;15.97;2.60;;;6.40;99.90;;;;;;5020918;28;20203;-77
2021/11/30 08:10:00;;;;;;;16.00;3.07;;;6.40;99.90;;;;;;5033076;28;20747;-77
2021/11/30 08:12:30;;;;;;;15.10;3.20;;;6.40;99.90;;;;;;5032176;28;20195;-77
2021/11/30 08:14:58;;;;;;;22.07;2.70;;;6.50;99.90;;;;;;5027735;28;20196;-77
2021/11/30 08:17:26;;;;;;;18.57;2.50;;;6.50;99.90;;;;;;5021492;28;20224;-77
2021/11/30 08:19:52;;;;;;;15.47;3.27;;;6.50;99.90;;;;;;5031679;28;20196;-78
2021/11/30 08:22:19;;;;;;;14.97;2.80;;;6.50;99.90;;;;;;5034267;28;20216;-77
2021/11/30 08:24:46;;;;;;;17.63;2.83;;;6.50;99.90;;;;;;5005621;28;20211;-77
2021/11/30 08:27:13;;;;;;;18.70;3.70;;;6.50;99.90;;;;;;5016402;28;20212;-77
2021/11/30 08:29:44;;;;;;;15.40;2.40;;;6.50;99.90;;;;;;5032597;28;20363;-78
2021/11/30 08:32:13;;;;;;;15.87;3.37;;;6.50;99.90;;;;;;5009526;28;20204;-77
2021/11/30 08:34:41;;;;;;;17.73;3.67;;;6.60;99.90;;;;;;5034762;28;20199;-77
2021/11/30 08:37:10;;;;;;;14.27;2.90;;;6.50;99.90;;;;;;5021781;28;20216;-77
2021/11/30 08:39:37;;;;;;;18.67;2.70;;;6.50;99.90;;;;;;5019507;28;20200;-77
2021/11/30 08:42:08;;;;;;;14.90;3.30;;;6.60;99.90;;;;;;5016173;28;20212;-78
2021/11/30 08:44:35;;;;;;;14.53;2.83;;;6.60;99.90;;;;;;5023481;28;20188;-78
2021/11/30 08:47:04;;;;;;;13.00;2.00;;;6.60;99.90;;;;;;5023317;28;20252;-78
2021/11/30 08:49:33;;;;;;;9.00;1.77;;;6.50;99.90;;;;;;5001206;28;20197;-76
2021/11/30 08:52:00;;;;;;;8.53;1.80;;;6.50;99.90;;;;;;5011446;28;20682;-80
2021/11/30 08:54:29;;;;;;;8.33;1.53;;;6.50;99.90;;;;;;5004347;28;20593;-76
2021/11/30 08:56:57;;;;;;;11.13;1.67;;;6.50;99.90;;;;;;5019732;28;20235;-84
2021/11/30 08:59:25;;;;;;;8.37;2.07;;;6.50;99.90;;;;;;5005220;28;20208;-77
2021/11/30 09:01:53;;;;;;;12.07;2.50;;;6.50;99.90;;;;;;5020583;28;20638;-77
2021/11/30 09:04:20;;;;;;;9.10;2.07;;;6.50;99.90;;;;;;5023561;28;20559;-77
2021/11/30 09:06:48;;;;;;;13.00;1.87;;;6.50;99.90;;;;;;5018152;28;20234;-77
2021/11/30 09:09:16;;;;;;;8.27;2.23;;;6.60;99.90;;;;;;5021460;28;20211;-76
2021/11/30 09:11:43;;;;;;;5.83;1.70;;;6.60;99.90;;;;;;5010130;28;20201;-79
2021/11/30 09:14:10;;;;;;;15.70;2.00;;;6.60;99.90;;;;;;4992087;28;20219;-76
2021/11/30 09:16:37;;;;;;;10.77;2.37;;;6.60;99.90;;;;;;5022035;28;20278;-77
2021/11/30 09:19:05;;;;;;;10.87;1.93;;;6.60;99.90;;;;;;5021761;28;20200;-75
2021/11/30 09:21:32;;;;;;;12.03;2.10;;;6.60;99.90;;;;;;5023861;28;20338;-79
2021/11/30 09:24:00;;;;;;;7.77;2.17;;;6.60;99.90;;;;;;5007200;28;20684;-76
2021/11/30 09:26:27;;;;;;;10.77;1.77;;;6.60;99.90;;;;;;5013880;28;20511;-76
2021/11/30 09:28:54;;;;;;;12.97;1.87;;;6.60;99.90;;;;;;5027001;28;20200;-76
2021/11/30 09:31:20;;;;;;;9.03;1.70;;;6.60;99.90;;;;;;5015131;28;20416;-79
2021/11/30 09:33:48;;;;;;;11.03;2.20;;;6.70;99.90;;;;;;5009381;28;20211;-78
2021/11/30 09:36:16;;;;;;;10.40;1.87;;;6.70;99.90;;;;;;5025608;28;20227;-76
2021/11/30 09:38:43;;;;;;;12.27;2.07;;;6.80;99.90;;;;;;5020804;28;20254;-75
2021/11/30 09:41:12;;;;;;;10.27;2.30;;;6.80;99.90;;;;;;5001774;28;20227;-75
2021/11/30 09:43:39;;;;;;;12.07;2.37;;;6.90;99.90;;;;;;5025715;28;20672;-75
2021/11/30 09:46:07;;;;;;;13.30;2.60;;;6.90;99.90;;;;;;5008199;28;20238;-75
2021/11/30 09:48:35;;;;;;;13.20;2.00;;;6.90;99.90;;;;;;5021898;28;20624;-75
2021/11/30 09:51:03;;;;;;;12.43;2.20;;;7.00;99.90;;;;;;5022006;28;20204;-75
2021/11/30 09:53:30;;;;;;;10.43;2.33;;;7.00;99.90;;;;;;5017690;28;20398;-75
2021/11/30 09:55:57;;;;;;;14.27;2.73;;;7.10;99.90;;;;;;5022738;28;20232;-75
2021/11/30 09:58:25;;;;;;;15.47;2.80;;;7.10;99.90;;;;;;5014798;28;20493;-75
2021/11/30 10:00:54;;;;;;;11.57;2.03;;;7.20;99.90;;;;;;4999732;28;20239;-76
2021/11/30 10:03:23;;;;;;;21.60;3.30;;;7.20;99.90;;;;;;5001860;28;20451;-76
2021/11/30 10:05:51;;;;;;;12.50;2.33;;;7.30;99.90;;;;;;5024362;28;20224;-77
2021/11/30 10:08:29;;;;;;;9.37;2.30;;;7.30;99.90;;;;;;5015202;28;20763;-78
2021/11/30 10:10:56;;;;;;;10.47;2.33;;;7.30;99.90;;;;;;5020372;28;20224;-76
2021/11/30 10:13:25;;;;;;;13.53;3.00;;;7.30;99.90;;;;;;5015206;28;20680;-77
2021/11/30 10:15:56;;;;;;;17.23;3.03;;;7.40;99.90;;;;;;5005758;28;20215;-76
2021/11/30 10:18:26;;;;;;;11.93;3.07;;;7.40;99.90;;;;;;5011022;28;20216;-76
2021/11/30 10:20:55;;;;;;;13.23;2.70;;;7.40;99.90;;;;;;5023346;28;20196;-78
2021/11/30 10:23:23;;;;;;;10.63;2.50;;;7.40;99.90;;;;;;5023123;28;20446;-77
2021/11/30 10:25:51;;;;;;;12.93;3.10;;;7.40;99.90;;;;;;5018478;28;20223;-77
2021/11/30 10:28:20;;;;;;;18.30;3.13;;;7.40;99.90;;;;;;5021180;28;20703;-78
2021/11/30 10:30:51;;;;;;;19.07;3.37;;;7.40;99.90;;;;;;5017531;28;20200;-79
2021/11/30 10:33:20;;;;;;;15.33;2.80;;;7.30;99.90;;;;;;5020110;28;20233;-76
2021/11/30 10:35:53;;;;;;;10.93;2.77;;;7.30;99.90;;;;;;5017909;28;20224;-77
2021/11/30 10:38:22;;;;;;;11.83;2.50;;;7.30;99.90;;;;;;5016810;28;20254;-76
2021/11/30 10:40:49;;;;;;;11.63;2.67;;;7.30;99.90;;;;;;5001291;28;20292;-79
2021/11/30 10:43:17;;;;;;;9.87;2.30;;;7.40;99.90;;;;;;5019541;28;20224;-79
2021/11/30 10:45:45;;;;;;;12.07;2.30;;;7.30;99.90;;;;;;5026680;28;20219;-77
2021/11/30 10:48:16;;;;;;;14.50;3.23;;;7.30;99.90;;;;;;5010022;28;20299;-78
2021/11/30 10:50:44;;;;;;;11.20;2.33;;;7.30;99.90;;;;;;5028695;28;20196;-78
2021/11/30 10:53:16;;;;;;;15.07;2.70;;;7.30;99.90;;;;;;5019499;28;20665;-78
2021/11/30 10:55:47;;;;;;;10.13;2.80;;;7.30;99.90;;;;;;5022645;28;20223;-79
2021/11/30 10:58:14;;;;;;;10.30;2.00;;;7.20;99.90;;;;;;5016724;28;20214;-78
2021/11/30 11:00:42;;;;;;;9.67;2.43;;;7.10;99.90;;;;;;5005502;28;20575;-77
2021/11/30 11:03:13;;;;;;;12.73;3.07;;;7.10;99.90;;;;;;5012660;28;20583;-76
2021/11/30 11:05:44;;;;;;;14.03;2.53;;;7.10;99.90;;;;;;5012762;28;20219;-78
2021/11/30 11:08:13;;;;;;;15.70;2.63;;;7.00;99.90;;;;;;5018101;28;20226;-78
2021/11/30 11:10:43;;;;;;;15.33;2.23;;;7.00;99.90;;;;;;5022329;28;20295;-77
2021/11/30 11:13:21;;;;;;;13.13;2.60;;;7.00;99.90;;;;;;5024130;28;20785;-79
2021/11/30 11:15:49;;;;;;;12.33;2.60;;;7.10;99.90;;;;;;5026581;28;20219;-76
2021/11/30 11:18:25;;;;;;;12.23;2.27;;;7.10;99.90;;;;;;5013078;28;20418;-78
2021/11/30 11:21:10;;;;;;;10.53;2.23;;;7.20;99.90;;;;;;5019050;28;20294;-77
2021/11/30 11:23:41;;;;;;;14.73;2.90;;;7.20;99.90;;;;;;5023479;28;20234;-77
2021/11/30 11:26:24;;;;;;;16.47;3.27;;;7.20;99.90;;;;;;5021034;28;20425;-77
2021/11/30 11:28:53;;;;;;;20.97;4.43;;;7.20;99.90;;;;;;5024901;28;20199;-77
2021/11/30 11:31:21;;;;;;;17.77;3.43;;;7.20;99.90;;;;;;5021290;28;20772;-77
2021/11/30 11:33:49;;;;;;;12.70;2.77;;;7.30;99.90;;;;;;5022198;28;20222;-77
2021/11/30 11:36:18;;;;;;;15.30;3.17;;;7.30;99.90;;;;;;5020963;28;20227;-78
2021/11/30 11:38:45;;;;;;;15.30;2.83;;;7.30;99.90;;;;;;5024431;28;20208;-81
2021/11/30 11:41:12;;;;;;;7.03;2.80;;;7.30;99.90;;;;;;5004936;28;20202;-78
2021/11/30 11:43:40;;;;;;;14.53;2.47;;;7.30;99.90;;;;;;5005882;28;20227;-80
2021/11/30 11:46:11;;;;;;;17.70;4.00;;;7.40;99.90;;;;;;5023835;28;20220;-78
2021/11/30 11:48:39;;;;;;;16.27;3.23;;;7.40;99.90;;;;;;5014443;28;20465;-78
2021/11/30 11:51:07;;;;;;;14.50;3.20;;;7.40;99.90;;;;;;4997641;28;20216;-80
2021/11/30 11:53:38;;;;;;;12.67;2.80;;;7.40;99.90;;;;;;5001110;28;20216;-80
2021/11/30 11:56:14;;;;;;;16.57;2.70;;;7.40;99.90;;;;;;4995475;28;20278;-78
2021/11/30 11:58:43;;;;;;;9.07;2.53;;;7.40;99.90;;;;;;5002449;28;20715;-78
2021/11/30 12:01:15;;;;;;;13.73;2.60;;;7.40;99.90;;;;;;5019129;28;20192;-78
2021/11/30 12:04:06;;;;;;;10.20;2.37;;;7.40;99.90;;;;;;5018252;28;20314;-78
2021/11/30 12:06:35;;;;;;;14.97;2.83;;;7.40;99.90;;;;;;5013861;28;20224;-78
2021/11/30 12:09:18;;;;;;;14.27;1.73;;;7.40;99.90;;;;;;5010972;28;20299;-78
2021/11/30 12:11:48;;;;;;;7.23;1.90;;;7.40;99.90;;;;;;5003141;28;20461;-77
2021/11/30 12:14:19;;;;;;;9.27;2.40;;;7.40;99.90;;;;;;5013579;28;20568;-77
2021/11/30 12:17:10;;;;;;;16.37;3.40;;;7.40;99.90;;;;;;5005339;28;20227;-77
2021/11/30 12:19:40;;;;;;;11.13;1.93;;;7.40;99.90;;;;;;5003863;28;20316;-79
2021/11/30 12:22:08;;;;;;;11.03;2.40;;;7.40;99.90;;;;;;5018293;28;20204;-77
2021/11/30 12:24:40;;;;;;;8.27;2.40;;;7.40;99.90;;;;;;5013686;28;20221;-78
2021/11/30 12:27:43;;;;;;;10.90;1.90;;;7.40;99.90;;;;;;5008558;28;20357;-78
2021/11/30 12:30:39;;;;;;;9.87;1.67;;;7.40;99.90;;;;;;5023881;28;20203;-78
2021/11/30 12:33:08;;;;;;;9.87;2.20;;;7.30;99.90;;;;;;5018617;28;20254;-78
2021/11/30 12:35:51;;;;;;;7.70;1.90;;;7.30;99.90;;;;;;5030783;28;20234;-78
2021/11/30 12:38:21;;;;;;;7.00;1.80;;;7.30;99.90;;;;;;5033787;28;20215;-77
2021/11/30 12:40:50;;;;;;;11.83;2.20;;;7.40;99.90;;;;;;5012594;28;20197;-78
2021/11/30 12:43:22;;;;;;;7.43;1.97;;;7.40;99.90;;;;;;5008808;28;20224;-78
2021/11/30 12:45:52;;;;;;;7.47;1.63;;;7.40;99.90;;;;;;5006666;28;20282;-77
2021/11/30 12:48:23;;;;;;;9.43;2.03;;;7.40;99.90;;;;;;5018074;28;20385;-78
2021/11/30 12:50:57;;;;;;;10.20;2.33;;;7.30;99.90;;;;;;5019260;28;20266;-77
2021/11/30 12:53:40;;;;;;;6.80;1.87;;;7.30;99.90;;;;;;5010224;28;20834;-79
2021/11/30 12:56:08;;;;;;;7.27;1.97;;;7.20;99.90;;;;;;5035173;28;20734;-80
2021/11/30 12:58:40;;;;;;;11.20;1.90;;;7.10;99.90;;;;;;5011488;28;20200;-78
2021/11/30 13:01:15;;;;;;;12.03;2.47;;;7.00;99.90;;;;;;5027545;28;20306;-79